MSSS/SAL METAR and TAF weather

Enter ICAO airport designator
Station Type Date Time Source
MSSS METAR 2019/09/20 05:50 UTC NOAA

MSSS 200550Z 29003KT 9999 FEW033CB SCT043 23/22 Q1014 A2995 RMK CB E SE S


Station Type Date Time Source
MSSS Decoded METAR 2019/09/20 05:50 UTC NOAA

San Salvador / Ilopango, El Salvador (MSSS) 13-42N 089-07W 621M
Sep 20, 2019 - 01:50 AM EDT / 2019.09.20 0550 UTC
Wind: from the WNW (290 degrees) at 3 MPH (3 KT):0
Visibility: greater than 7 mile(s):0
Sky conditions: partly cloudy
Weather: Cumulonimbus clouds observed
Temperature: 73 F (23 C)
Dew Point: 71 F (22 C)
Relative Humidity: 94%
Pressure (altimeter): 29.95 in. Hg (1014 hPa)
ob: MSSS 200550Z 29003KT 9999 FEW033CB SCT043 23/22 Q1014 A2995 RMK CB E SE S
cycle: 6

Station Type Date Time Source
MSSS TAF 2019/09/20 12:25 UTC NOAA

TAF MSSS 200925Z 2012/2112 35005KT 9999 FEW017 BKN037 TX29/2020Z TN22/2012Z
FM201800 19008KT 9999 SCT020 FEW040CB
TEMPO 2100/2103 36012KT 5000 TSRA BKN17 SCT33CB
FM210300 34004KT 6000 RA BKN013
FM210600 00000KT 7000 BKN010

Example: see airport list